Time;durP1;ratioP1;P1;durP2;ratioP2;P2;SDS_P1;SDS_P2;PMS_P1;PMS_P2;Temp;Humidity;BMP_temperature;BMP_pressure;BME280_temperature;BME280_humidity;BME280_pressure;Samples;Min_cycle;Max_cycle;Signal;HPM_P1;HPM_P2
2022/11/16 00:01:26;;;;;;;6.60;1.80;;;9.40;99.90;;;;;;5107148;28;20058;-55
2022/11/16 00:03:54;;;;;;;4.75;1.10;;;9.40;99.90;;;;;;5082939;28;20039;-58
2022/11/16 00:06:22;;;;;;;3.20;1.15;;;9.40;99.90;;;;;;5087479;28;20052;-58
2022/11/16 00:11:47;;;;;;;9.27;1.40;;;9.40;99.90;;;;;;5088116;28;20113;-57
2022/11/16 00:14:13;;;;;;;4.47;0.80;;;9.30;99.90;;;;;;5093301;28;20135;-56
2022/11/16 00:16:40;;;;;;;2.83;0.70;;;9.30;99.90;;;;;;5108256;28;20047;-57
2022/11/16 00:19:08;;;;;;;11.63;1.67;;;9.40;99.90;;;;;;5103366;28;20052;-57
2022/11/16 00:21:35;;;;;;;3.72;0.93;;;9.30;99.90;;;;;;5088193;28;20116;-58
2022/11/16 00:24:02;;;;;;;11.07;1.10;;;9.30;99.90;;;;;;5073775;28;20135;-58
2022/11/16 00:26:29;;;;;;;5.50;1.20;;;9.30;99.90;;;;;;5105323;28;20050;-63
2022/11/16 00:28:55;;;;;;;5.13;0.90;;;9.30;99.90;;;;;;5068303;28;20039;-56
2022/11/16 00:31:22;;;;;;;12.63;2.15;;;9.20;99.90;;;;;;5091242;28;20044;-60
2022/11/16 00:33:49;;;;;;;5.07;1.17;;;9.30;99.90;;;;;;5091569;28;20044;-55
2022/11/16 00:36:16;;;;;;;5.60;1.00;;;9.30;99.90;;;;;;5100199;28;20047;-55
2022/11/16 00:38:43;;;;;;;13.43;1.33;;;9.40;99.90;;;;;;5103044;28;20050;-56
2022/11/16 00:41:09;;;;;;;7.97;0.95;;;9.40;99.90;;;;;;5097147;28;20056;-56
2022/11/16 00:43:36;;;;;;;10.00;1.40;;;9.50;99.90;;;;;;5072587;28;20047;-58
2022/11/16 00:46:03;;;;;;;10.13;1.35;;;9.40;99.90;;;;;;5096155;28;20047;-58
2022/11/16 00:48:30;;;;;;;10.07;0.88;;;9.30;99.90;;;;;;5106376;28;20054;-58
2022/11/16 00:50:58;;;;;;;5.55;0.90;;;9.20;99.90;;;;;;5080849;28;20048;-59
2022/11/16 00:53:24;;;;;;;4.65;0.88;;;9.10;99.90;;;;;;5087351;28;20456;-60
2022/11/16 00:55:51;;;;;;;6.05;0.82;;;9.00;99.90;;;;;;5076905;28;20131;-60
2022/11/16 00:58:18;;;;;;;3.85;0.77;;;9.00;99.90;;;;;;5077473;28;20525;-59
2022/11/16 01:00:45;;;;;;;2.63;0.35;;;8.90;99.90;;;;;;5092614;28;20186;-59
2022/11/16 01:03:11;;;;;;;1.30;0.52;;;8.90;99.90;;;;;;5107619;28;20055;-58
2022/11/16 01:05:38;;;;;;;2.45;0.73;;;8.80;99.90;;;;;;5103204;28;20148;-58
2022/11/16 01:08:05;;;;;;;2.30;0.70;;;8.80;99.90;;;;;;5069903;28;20124;-60
2022/11/16 01:10:32;;;;;;;5.05;1.40;;;8.80;99.90;;;;;;5091471;28;20055;-58
2022/11/16 01:12:58;;;;;;;6.13;0.60;;;8.70;99.90;;;;;;5104353;28;20050;-60
2022/11/16 01:15:26;;;;;;;2.13;0.60;;;8.70;99.90;;;;;;5102874;28;20047;-58
2022/11/16 01:17:53;;;;;;;3.88;0.60;;;8.60;99.90;;;;;;5074630;28;20054;-58
2022/11/16 01:20:22;;;;;;;1.13;0.55;;;8.60;99.90;;;;;;5091007;28;20048;-59
2022/11/16 01:22:49;;;;;;;3.92;0.82;;;8.60;99.90;;;;;;5082142;28;20123;-59
2022/11/16 01:25:16;;;;;;;5.03;0.50;;;8.50;99.90;;;;;;5102632;28;20043;-59
2022/11/16 01:27:43;;;;;;;7.18;1.42;;;8.50;99.90;;;;;;5096797;28;20499;-59
2022/11/16 01:30:11;;;;;;;6.43;0.80;;;8.50;99.90;;;;;;5090282;28;20050;-58
2022/11/16 01:32:38;;;;;;;0.98;0.50;;;8.40;99.90;;;;;;5097223;28;20050;-58
2022/11/16 01:35:05;;;;;;;3.78;0.80;;;8.40;99.90;;;;;;5103337;28;20043;-56
2022/11/16 01:37:32;;;;;;;4.57;0.88;;;8.40;99.90;;;;;;5079915;28;20051;-58
2022/11/16 01:39:58;;;;;;;13.27;1.35;;;8.40;99.90;;;;;;5087043;28;20479;-58
2022/11/16 01:42:26;;;;;;;4.90;1.10;;;8.40;99.90;;;;;;5095044;28;20518;-58
2022/11/16 01:44:58;;;;;;;6.43;0.60;;;8.30;99.90;;;;;;5111100;28;20065;-58
2022/11/16 01:47:25;;;;;;;3.28;0.57;;;8.30;99.90;;;;;;5086473;28;20505;-58
2022/11/16 01:50:10;;;;;;;2.90;0.55;;;8.30;99.90;;;;;;5090478;28;20487;-58
2022/11/16 01:52:40;;;;;;;6.78;0.50;;;8.30;99.90;;;;;;5073744;28;20544;-57
2022/11/16 01:55:07;;;;;;;4.72;0.73;;;8.30;99.90;;;;;;5076023;28;20402;-56
2022/11/16 01:57:37;;;;;;;3.33;0.52;;;8.30;99.90;;;;;;5065136;28;20052;-58
2022/11/16 02:00:05;;;;;;;5.80;1.08;;;8.30;99.90;;;;;;5072492;28;20470;-56
2022/11/16 02:02:32;;;;;;;7.85;0.80;;;8.30;99.90;;;;;;5101612;28;20134;-58
2022/11/16 02:04:59;;;;;;;6.85;0.90;;;8.40;99.90;;;;;;5091038;28;20100;-58
2022/11/16 02:10:39;;;;;;;7.85;0.88;;;8.50;99.90;;;;;;5090198;28;20490;-58
2022/11/16 02:13:18;;;;;;;5.97;1.05;;;8.60;99.90;;;;;;5094780;28;20040;-58
2022/11/16 02:16:02;;;;;;;5.05;0.65;;;8.60;99.90;;;;;;5092167;28;20055;-58
2022/11/16 02:18:46;;;;;;;8.80;1.00;;;8.60;99.90;;;;;;5074329;28;20070;-59
2022/11/16 02:21:33;;;;;;;3.80;1.05;;;8.60;99.90;;;;;;5072219;28;20414;-57
2022/11/16 02:24:18;;;;;;;12.15;1.48;;;8.60;99.90;;;;;;5076912;28;20040;-59
2022/11/16 02:27:10;;;;;;;14.02;1.50;;;8.70;99.90;;;;;;5108066;28;20051;-58
2022/11/16 02:29:41;;;;;;;8.32;0.90;;;8.70;99.90;;;;;;5081035;28;20143;-60
2022/11/16 02:32:21;;;;;;;8.65;1.15;;;8.70;99.90;;;;;;5090162;28;20051;-57
2022/11/16 02:34:51;;;;;;;11.00;1.83;;;8.80;99.90;;;;;;5081885;28;20399;-57
2022/11/16 02:37:19;;;;;;;5.43;1.17;;;8.80;99.90;;;;;;5072409;28;20043;-59
2022/11/16 02:39:47;;;;;;;6.70;0.98;;;8.80;99.90;;;;;;5082956;28;20040;-59
2022/11/16 02:42:22;;;;;;;7.43;1.42;;;8.90;99.90;;;;;;5055336;28;20075;-59
2022/11/16 02:44:49;;;;;;;5.75;1.20;;;8.90;99.90;;;;;;5083660;28;20044;-60
2022/11/16 02:47:20;;;;;;;6.38;1.10;;;8.80;99.90;;;;;;5089161;28;20044;-59
2022/11/16 02:49:49;;;;;;;3.45;0.93;;;8.80;99.90;;;;;;5071253;28;20056;-60
2022/11/16 02:52:16;;;;;;;7.07;1.48;;;8.90;99.90;;;;;;5071010;28;20652;-59
2022/11/16 02:54:43;;;;;;;8.25;1.20;;;8.80;99.90;;;;;;5077017;28;20047;-59
2022/11/16 02:57:10;;;;;;;4.25;0.80;;;8.80;99.90;;;;;;5106675;28;20062;-60
2022/11/16 02:59:40;;;;;;;6.93;1.58;;;8.80;99.90;;;;;;5101684;28;20046;-60
2022/11/16 03:02:19;;;;;;;9.60;1.15;;;8.80;99.90;;;;;;5088791;28;20056;-60
2022/11/16 03:04:48;;;;;;;7.85;0.70;;;8.80;99.90;;;;;;5075458;28;20059;-59
2022/11/16 03:07:17;;;;;;;3.10;1.20;;;8.70;99.90;;;;;;5074294;28;20078;-59
2022/11/16 03:09:44;;;;;;;17.02;2.30;;;8.70;99.90;;;;;;5086793;28;20094;-60
2022/11/16 03:12:13;;;;;;;11.32;1.00;;;8.60;99.90;;;;;;5054288;28;20143;-60
2022/11/16 03:14:49;;;;;;;3.60;0.95;;;8.60;99.90;;;;;;5080328;28;20495;-59
2022/11/16 03:17:42;;;;;;;4.75;1.60;;;8.60;99.90;;;;;;5090394;28;20044;-60
2022/11/16 03:20:17;;;;;;;3.72;0.68;;;8.60;99.90;;;;;;5089464;28;20044;-60
2022/11/16 03:22:44;;;;;;;4.70;0.88;;;8.60;99.90;;;;;;5070849;28;20155;-60
2022/11/16 03:25:12;;;;;;;6.93;1.02;;;8.60;99.90;;;;;;5099349;28;20379;-59
2022/11/16 03:28:01;;;;;;;9.25;1.25;;;8.60;99.90;;;;;;5072227;28;20180;-57
2022/11/16 03:30:29;;;;;;;7.82;0.82;;;8.60;99.90;;;;;;5082306;28;20126;-59
2022/11/16 03:33:13;;;;;;;3.53;0.70;;;8.70;99.90;;;;;;5070446;28;20052;-59
2022/11/16 03:35:47;;;;;;;;;;;8.70;99.90;;;;;;5085434;28;20047;-59
2022/11/16 03:38:13;;;;;;;7.35;1.27;;;8.70;99.90;;;;;;5088385;28;19927;-59
2022/11/16 03:40:40;;;;;;;4.93;0.80;;;8.70;99.90;;;;;;5086243;28;20057;-59
2022/11/16 03:43:07;;;;;;;10.13;0.98;;;8.70;99.90;;;;;;5090083;28;20052;-60
2022/11/16 03:45:34;;;;;;;7.38;0.80;;;8.80;99.90;;;;;;5066053;28;20053;-58
2022/11/16 03:48:01;;;;;;;3.33;0.95;;;8.70;99.90;;;;;;5074439;28;20089;-59
2022/11/16 03:50:27;;;;;;;4.43;1.92;;;8.70;99.90;;;;;;5076018;28;20048;-58
2022/11/16 03:52:54;;;;;;;2.25;1.20;;;8.70;99.90;;;;;;5095059;28;20454;-59
2022/11/16 03:55:21;;;;;;;3.20;0.68;;;8.80;99.90;;;;;;5092430;28;20039;-59
2022/11/16 03:57:47;;;;;;;5.45;0.90;;;8.70;99.90;;;;;;5091114;28;20051;-59
2022/11/16 04:00:14;;;;;;;9.27;1.10;;;8.80;99.90;;;;;;5089101;28;20048;-59
2022/11/16 04:02:41;;;;;;;4.90;0.80;;;8.70;99.90;;;;;;5078812;28;20063;-59
2022/11/16 04:24:41;;;;;;;7.05;1.65;;;8.80;99.90;;;;;;5073365;28;20079;-60
2022/11/16 04:29:54;;;;;;;5.82;0.98;;;8.70;99.90;;;;;;5072627;28;20044;-59
2022/11/16 04:37:55;;;;;;;1.10;0.43;;;8.60;99.90;;;;;;5084982;28;20434;-60
2022/11/16 04:40:28;;;;;;;4.63;0.75;;;8.60;99.90;;;;;;5069806;28;20071;-59
2022/11/16 04:42:55;;;;;;;1.35;0.63;;;8.60;99.90;;;;;;5081914;28;20056;-60
2022/11/16 04:48:07;;;;;;;1.95;0.50;;;8.60;99.90;;;;;;5099655;28;20050;-60
2022/11/16 04:50:34;;;;;;;6.13;0.68;;;8.50;99.90;;;;;;5087784;28;20062;-59
2022/11/16 04:53:01;;;;;;;3.10;0.60;;;8.50;99.90;;;;;;5091733;28;20138;-60
2022/11/16 04:55:28;;;;;;;5.40;0.63;;;8.60;99.90;;;;;;5105503;28;20048;-60
2022/11/16 04:57:55;;;;;;;0.43;0.28;;;8.60;99.90;;;;;;5099538;28;20055;-59
2022/11/16 05:00:22;;;;;;;1.17;0.40;;;8.50;99.90;;;;;;5102885;28;20043;-60
2022/11/16 05:02:48;;;;;;;2.38;0.38;;;8.60;99.90;;;;;;5103018;28;20224;-60
2022/11/16 05:05:15;;;;;;;1.38;0.40;;;8.50;99.90;;;;;;5094232;28;20044;-59
2022/11/16 05:07:42;;;;;;;1.40;0.60;;;8.50;99.90;;;;;;5091905;28;20495;-59
2022/11/16 05:10:09;;;;;;;2.72;0.43;;;8.50;99.90;;;;;;5095741;28;20044;-59
2022/11/16 05:12:36;;;;;;;2.22;0.40;;;8.50;99.90;;;;;;5089083;28;20410;-60
2022/11/16 05:15:03;;;;;;;4.82;0.90;;;8.50;99.90;;;;;;5080666;28;20079;-59
2022/11/16 05:17:30;;;;;;;3.83;1.15;;;8.50;99.90;;;;;;5089412;28;20047;-59
2022/11/16 05:22:42;;;;;;;8.95;2.72;;;8.50;99.90;;;;;;5109655;28;20062;-59
2022/11/16 05:25:09;;;;;;;2.30;0.70;;;8.50;99.90;;;;;;5108846;28;20040;-60
2022/11/16 05:27:36;;;;;;;3.25;0.70;;;8.60;99.90;;;;;;5110754;28;20082;-59
2022/11/16 05:30:06;;;;;;;3.45;0.77;;;8.50;99.90;;;;;;5080800;28;20058;-60
2022/11/16 05:32:33;;;;;;;1.70;0.68;;;8.40;99.90;;;;;;5111476;28;20494;-59
2022/11/16 05:35:00;;;;;;;6.43;2.03;;;8.40;99.90;;;;;;5097849;28;20047;-59
2022/11/16 05:37:29;;;;;;;4.32;0.73;;;8.40;99.90;;;;;;5093160;28;20450;-59
2022/11/16 05:39:55;;;;;;;2.15;0.85;;;8.40;99.90;;;;;;5097844;28;20040;-60
2022/11/16 05:42:22;;;;;;;4.07;1.20;;;8.40;99.90;;;;;;5111087;28;20134;-60
2022/11/16 05:44:49;;;;;;;2.53;0.55;;;8.40;99.90;;;;;;5099828;28;20044;-59
2022/11/16 05:47:16;;;;;;;3.10;0.50;;;8.40;99.90;;;;;;5108857;28;20050;-59
2022/11/16 05:49:42;;;;;;;9.20;1.00;;;8.40;99.90;;;;;;5102162;28;20415;-60
2022/11/16 05:52:10;;;;;;;5.18;0.75;;;8.40;99.90;;;;;;5106727;28;20043;-60
2022/11/16 05:54:37;;;;;;;2.80;0.95;;;8.40;99.90;;;;;;5104308;28;20123;-60
2022/11/16 05:57:04;;;;;;;4.50;0.70;;;8.40;99.90;;;;;;5102296;28;20047;-61
2022/11/16 05:59:30;;;;;;;3.22;0.50;;;8.40;99.90;;;;;;5094241;28;20080;-60
2022/11/16 06:01:57;;;;;;;3.78;1.25;;;8.40;99.90;;;;;;5098626;28;20498;-60
2022/11/16 06:04:24;;;;;;;2.50;0.70;;;8.40;99.90;;;;;;5073571;28;20047;-60
2022/11/16 06:06:51;;;;;;;8.52;1.23;;;8.40;99.90;;;;;;5101478;28;20056;-61
2022/11/16 06:09:18;;;;;;;9.18;1.00;;;8.40;99.90;;;;;;5091510;28;20087;-63
2022/11/16 06:11:44;;;;;;;3.55;0.80;;;8.40;99.90;;;;;;5083748;28;20058;-60
2022/11/16 06:14:11;;;;;;;3.40;1.35;;;8.40;99.90;;;;;;5090546;28;20056;-60
2022/11/16 06:16:38;;;;;;;7.65;0.90;;;8.40;99.90;;;;;;5083888;28;20047;-60
2022/11/16 06:19:05;;;;;;;4.22;0.93;;;8.40;99.90;;;;;;5089980;28;20094;-60
2022/11/16 06:21:31;;;;;;;8.07;1.35;;;8.50;99.90;;;;;;5084584;28;20520;-60
2022/11/16 06:23:58;;;;;;;3.90;0.90;;;8.50;99.90;;;;;;5090081;28;20138;-60
2022/11/16 06:26:25;;;;;;;6.93;1.02;;;8.60;99.90;;;;;;5084363;28;20135;-63
2022/11/16 06:28:53;;;;;;;5.63;1.35;;;8.60;99.90;;;;;;5071761;28;20094;-60
2022/11/16 06:31:20;;;;;;;6.85;0.95;;;8.60;99.90;;;;;;5100141;28;20142;-60
2022/11/16 06:33:47;;;;;;;5.25;0.88;;;8.60;99.90;;;;;;5091888;28;20051;-60
2022/11/16 06:36:13;;;;;;;20.05;3.47;;;8.70;99.90;;;;;;5093355;28;20498;-60
2022/11/16 06:38:40;;;;;;;12.00;3.42;;;8.70;99.90;;;;;;5087825;28;20055;-59
2022/11/16 06:41:07;;;;;;;6.50;1.15;;;8.70;99.90;;;;;;5103780;28;20052;-61
2022/11/16 06:43:34;;;;;;;4.60;1.50;;;8.70;99.90;;;;;;5103469;28;20134;-61
2022/11/16 06:46:01;;;;;;;7.20;1.42;;;8.70;99.90;;;;;;5105432;28;20040;-61
2022/11/16 06:48:28;;;;;;;10.40;1.45;;;8.80;99.90;;;;;;5098735;28;20651;-61
2022/11/16 06:50:54;;;;;;;10.88;1.10;;;8.80;99.90;;;;;;5043721;28;20039;-60
2022/11/16 06:53:21;;;;;;;7.05;0.93;;;8.80;99.90;;;;;;5060125;28;20048;-61
2022/11/16 06:55:58;;;;;;;9.52;1.17;;;8.80;99.90;;;;;;5091888;28;20079;-60
2022/11/16 06:58:27;;;;;;;8.10;1.17;;;8.80;99.90;;;;;;5085824;28;20053;-60
2022/11/16 07:00:54;;;;;;;7.88;1.08;;;8.80;99.90;;;;;;5107813;28;20048;-60
2022/11/16 07:03:20;;;;;;;12.13;2.63;;;8.80;99.90;;;;;;5096162;28;20055;-61
2022/11/16 07:05:56;;;;;;;12.46;1.21;;;8.90;99.90;;;;;;5078881;28;10001147;-61
2022/11/16 07:08:23;;;;;;;6.70;0.90;;;8.90;99.90;;;;;;5095004;28;20276;-61
2022/11/16 07:10:50;;;;;;;9.57;1.30;;;8.80;99.90;;;;;;5106958;28;20096;-61
2022/11/16 07:13:16;;;;;;;4.97;1.30;;;8.80;99.90;;;;;;5093407;28;20518;-60
2022/11/16 07:15:43;;;;;;;13.32;1.40;;;8.80;99.90;;;;;;5106575;28;20052;-61
2022/11/16 07:18:13;;;;;;;9.85;1.48;;;8.90;99.90;;;;;;5100741;28;20066;-63
2022/11/16 07:20:39;;;;;;;5.93;1.55;;;8.80;99.90;;;;;;5086363;28;20052;-60
2022/11/16 07:23:06;;;;;;;3.40;1.00;;;8.80;99.90;;;;;;5078322;28;20513;-61
2022/11/16 07:25:39;;;;;;;5.63;1.30;;;8.80;99.90;;;;;;5090598;28;20036;-61
2022/11/16 07:28:06;;;;;;;2.63;1.05;;;8.80;99.90;;;;;;5096447;28;20079;-62
2022/11/16 07:30:33;;;;;;;8.13;1.35;;;8.80;99.90;;;;;;5084906;28;20517;-61
2022/11/16 07:32:59;;;;;;;6.75;1.25;;;8.80;99.90;;;;;;5083703;28;20170;-60
2022/11/16 07:35:27;;;;;;;5.55;0.80;;;8.80;99.90;;;;;;5091406;28;20143;-62
2022/11/16 07:37:54;;;;;;;6.63;1.25;;;8.80;99.90;;;;;;5089573;28;20054;-60
2022/11/16 07:40:21;;;;;;;11.50;1.58;;;8.90;99.90;;;;;;5097371;28;20048;-60
2022/11/16 07:42:48;;;;;;;6.68;2.25;;;8.90;99.90;;;;;;5084236;28;20066;-59
2022/11/16 07:45:15;;;;;;;17.05;2.03;;;8.90;99.90;;;;;;5095469;28;20044;-60
2022/11/16 07:47:41;;;;;;;9.18;1.65;;;8.90;99.90;;;;;;5103905;28;20062;-60
2022/11/16 07:50:09;;;;;;;9.13;2.05;;;8.90;99.90;;;;;;5093961;28;20042;-60
2022/11/16 07:52:36;;;;;;;1.95;0.70;;;8.80;99.90;;;;;;5103567;28;20134;-60
2022/11/16 07:55:04;;;;;;;7.65;1.10;;;8.80;99.90;;;;;;5094200;28;20044;-60
2022/11/16 07:57:31;;;;;;;7.55;1.00;;;8.90;99.90;;;;;;5099650;28;20071;-60
2022/11/16 07:59:58;;;;;;;7.13;1.00;;;8.80;99.90;;;;;;5079566;28;20044;-60
2022/11/16 08:02:24;;;;;;;8.35;1.30;;;8.80;99.90;;;;;;5084580;28;20056;-59
2022/11/16 08:04:51;;;;;;;9.52;1.05;;;8.90;99.90;;;;;;5097577;28;20043;-59
2022/11/16 08:07:18;;;;;;;7.43;1.20;;;8.80;99.90;;;;;;5097417;28;20222;-59
2022/11/16 08:09:45;;;;;;;8.00;1.52;;;8.80;99.90;;;;;;5093307;28;20055;-60
2022/11/16 08:12:12;;;;;;;6.90;1.42;;;8.80;99.90;;;;;;5107053;28;20062;-60
2022/11/16 08:14:38;;;;;;;6.10;1.65;;;8.90;99.90;;;;;;5098082;28;20506;-60
2022/11/16 08:17:07;;;;;;;11.93;1.60;;;8.90;99.90;;;;;;5104329;28;20057;-61
2022/11/16 08:19:35;;;;;;;11.07;3.95;;;9.00;99.90;;;;;;5100219;28;20044;-63
2022/11/16 08:22:02;;;;;;;4.35;1.42;;;9.00;99.90;;;;;;5102693;28;20690;-61
2022/11/16 08:24:29;;;;;;;5.53;1.38;;;9.00;99.90;;;;;;5083489;28;20422;-60
2022/11/16 08:26:57;;;;;;;4.35;1.20;;;9.00;99.90;;;;;;5103289;28;20685;-61
2022/11/16 08:29:25;;;;;;;8.05;1.42;;;9.10;99.90;;;;;;5095676;28;20536;-61
2022/11/16 08:31:51;;;;;;;1.92;1.02;;;9.00;99.90;;;;;;5080365;28;20611;-61
2022/11/16 08:34:18;;;;;;;4.05;1.20;;;9.00;99.90;;;;;;5087584;28;20142;-60
2022/11/16 08:36:45;;;;;;;2.58;0.70;;;9.00;99.90;;;;;;5078061;28;20059;-61
2022/11/16 08:39:12;;;;;;;4.75;1.00;;;9.00;99.90;;;;;;5105163;28;20253;-62
2022/11/16 08:41:41;;;;;;;2.30;0.50;;;9.00;99.90;;;;;;5078259;28;20134;-61
2022/11/16 08:44:08;;;;;;;4.45;1.10;;;9.00;99.90;;;;;;5085289;28;20139;-61
2022/11/16 08:46:34;;;;;;;3.25;0.93;;;9.10;99.90;;;;;;5096987;28;20127;-61
2022/11/16 08:49:01;;;;;;;4.72;1.25;;;9.10;99.90;;;;;;5067192;28;20147;-62
2022/11/16 08:51:28;;;;;;;7.40;1.20;;;9.20;99.90;;;;;;5098820;28;20044;-61
2022/11/16 08:53:56;;;;;;;4.20;1.50;;;9.10;99.90;;;;;;5089644;28;20056;-60
2022/11/16 08:56:25;;;;;;;7.63;2.05;;;9.20;99.90;;;;;;5095134;28;20070;-60
2022/11/16 08:58:53;;;;;;;4.97;1.70;;;9.20;99.90;;;;;;5108532;28;20047;-60
2022/11/16 09:01:26;;;;;;;3.50;1.67;;;9.20;99.90;;;;;;5106454;28;20106;-60
2022/11/16 09:03:53;;;;;;;5.93;1.20;;;9.30;99.90;;;;;;5091915;28;20600;-61
2022/11/16 09:06:21;;;;;;;4.03;2.25;;;9.30;99.90;;;;;;5094918;28;20131;-61
2022/11/16 09:08:48;;;;;;;6.43;1.20;;;9.30;99.90;;;;;;5108145;28;20139;-60
2022/11/16 09:11:16;;;;;;;5.88;1.33;;;9.50;99.90;;;;;;5106644;28;20059;-60
2022/11/16 09:13:44;;;;;;;6.22;1.52;;;9.40;99.90;;;;;;5096701;28;20514;-60
2022/11/16 09:16:10;;;;;;;2.60;1.13;;;9.40;99.90;;;;;;5095070;28;20097;-61
2022/11/16 09:18:37;;;;;;;8.75;1.40;;;9.50;99.90;;;;;;5103820;28;20466;-60
2022/11/16 09:21:04;;;;;;;3.00;1.30;;;9.40;99.90;;;;;;5106653;28;20039;-60
2022/11/16 09:23:31;;;;;;;7.45;1.58;;;9.50;99.90;;;;;;5100972;28;20056;-60
2022/11/16 09:26:04;;;;;;;3.80;1.35;;;9.50;99.90;;;;;;5093939;28;20040;-60
2022/11/16 09:28:31;;;;;;;5.57;1.38;;;9.50;99.90;;;;;;5100141;28;20118;-59
2022/11/16 09:31:04;;;;;;;5.55;1.63;;;9.60;99.90;;;;;;5109033;28;20105;-60
2022/11/16 09:33:32;;;;;;;9.80;1.33;;;9.50;99.90;;;;;;5084976;28;20052;-60
2022/11/16 09:36:05;;;;;;;2.38;0.82;;;9.60;99.90;;;;;;5073215;28;20048;-60
2022/11/16 09:38:43;;;;;;;8.27;1.35;;;9.70;99.90;;;;;;5075030;28;20047;-60
2022/11/16 09:41:48;;;;;;;2.90;0.95;;;9.70;99.90;;;;;;5078578;28;20406;-60
2022/11/16 09:44:33;;;;;;;8.82;1.10;;;9.90;99.90;;;;;;5101389;28;20048;-59
2022/11/16 09:47:00;;;;;;;6.55;1.35;;;9.90;99.90;;;;;;5106296;28;20044;-61
2022/11/16 09:49:32;;;;;;;9.10;0.98;;;9.90;99.90;;;;;;5064247;28;20109;-60
2022/11/16 09:52:01;;;;;;;9.95;1.48;;;9.90;99.90;;;;;;5094358;28;20433;-60
2022/11/16 09:54:33;;;;;;;7.07;1.10;;;10.00;99.90;;;;;;5065546;28;20077;-60
2022/11/16 09:57:01;;;;;;;6.82;0.95;;;10.00;99.90;;;;;;5074711;28;20066;-60
2022/11/16 09:59:40;;;;;;;3.95;1.00;;;10.10;99.90;;;;;;5099602;28;20047;-60
2022/11/16 10:02:31;;;;;;;2.70;0.75;;;10.20;99.90;;;;;;5107458;28;20062;-59
2022/11/16 10:05:16;;;;;;;4.57;1.15;;;10.10;99.90;;;;;;5062744;28;20075;-61
2022/11/16 10:08:10;;;;;;;11.50;2.35;;;10.10;99.90;;;;;;5094116;28;20504;-61
2022/11/16 10:10:39;;;;;;;6.53;0.80;;;10.10;99.90;;;;;;5088327;28;20070;-60
2022/11/16 10:13:21;;;;;;;6.97;1.67;;;10.10;99.90;;;;;;5085224;28;20077;-59
2022/11/16 10:16:00;;;;;;;2.55;0.70;;;10.10;99.90;;;;;;5095548;28;20044;-60
2022/11/16 10:18:50;;;;;;;1.75;0.75;;;10.10;99.90;;;;;;5075810;28;20048;-59
2022/11/16 10:21:34;;;;;;;1.65;0.77;;;10.10;99.90;;;;;;5073155;28;20056;-60
2022/11/16 10:24:11;;;;;;;;;;;10.10;99.90;;;;;;5072294;28;20040;-60
2022/11/16 10:27:08;;;;;;;2.63;1.02;;;10.10;99.90;;;;;;5098098;28;19923;-60
2022/11/16 10:29:50;;;;;;;3.55;0.60;;;10.10;99.90;;;;;;5094192;28;20055;-60
2022/11/16 10:32:29;;;;;;;2.72;1.17;;;10.10;99.90;;;;;;5110113;28;20129;-60
2022/11/16 10:35:14;;;;;;;4.88;0.70;;;10.20;99.90;;;;;;5085010;28;20047;-62
2022/11/16 10:37:46;;;;;;;5.68;1.48;;;10.20;99.90;;;;;;5089613;28;20059;-61
2022/11/16 10:40:19;;;;;;;3.22;0.75;;;10.20;99.90;;;;;;5073828;28;20058;-60
2022/11/16 10:43:08;;;;;;;4.27;1.03;;;10.30;99.90;;;;;;5109843;28;20463;-60
2022/11/16 10:46:00;;;;;;;5.72;2.30;;;10.20;99.90;;;;;;5079213;28;20218;-61
2022/11/16 10:48:55;;;;;;;3.85;0.98;;;10.20;99.90;;;;;;5089917;28;20560;-59
2022/11/16 10:51:22;;;;;;;6.10;1.13;;;10.20;99.90;;;;;;5082952;28;20494;-60
2022/11/16 10:53:49;;;;;;;2.92;0.80;;;10.20;99.90;;;;;;5106936;28;20047;-59
2022/11/16 10:56:23;;;;;;;3.83;1.23;;;10.20;99.90;;;;;;5099940;28;20040;-62
2022/11/16 10:59:01;;;;;;;4.45;1.10;;;10.20;99.90;;;;;;5069450;28;20053;-60
2022/11/16 11:01:34;;;;;;;4.28;0.90;;;10.30;99.90;;;;;;5097849;28;20056;-60
2022/11/16 11:04:23;;;;;;;7.72;1.25;;;10.30;99.90;;;;;;5089519;28;20056;-60
2022/11/16 11:06:55;;;;;;;2.58;0.80;;;10.40;99.90;;;;;;5076624;28;20052;-60
2022/11/16 11:09:32;;;;;;;13.23;1.50;;;10.40;99.90;;;;;;5072009;28;20050;-60
2022/11/16 11:14:58;;;;;;;16.77;2.00;;;10.40;99.90;;;;;;5103716;28;20042;-61
2022/11/16 11:17:25;;;;;;;7.57;1.10;;;10.50;99.90;;;;;;5079347;28;20130;-59
2022/11/16 11:20:03;;;;;;;3.55;0.70;;;10.50;99.90;;;;;;5090104;28;20135;-60
2022/11/16 11:22:32;;;;;;;2.88;1.23;;;10.50;99.90;;;;;;5080931;28;20048;-61
2022/11/16 11:25:00;;;;;;;5.80;0.85;;;10.50;99.90;;;;;;5073448;28;20035;-60
2022/11/16 11:27:30;;;;;;;9.85;1.25;;;10.60;99.90;;;;;;5062572;28;20506;-59
2022/11/16 11:29:57;;;;;;;5.85;1.02;;;10.50;99.90;;;;;;5089128;28;20039;-59
2022/11/16 11:32:32;;;;;;;4.82;0.80;;;10.50;99.90;;;;;;5081729;28;20471;-59
2022/11/16 11:35:00;;;;;;;4.13;0.93;;;10.50;99.90;;;;;;5071172;28;20059;-59
2022/11/16 11:37:34;;;;;;;5.07;1.20;;;10.60;99.90;;;;;;5097022;28;20137;-59
2022/11/16 11:40:26;;;;;;;3.55;1.00;;;10.70;99.90;;;;;;5108078;28;20047;-59
2022/11/16 11:42:58;;;;;;;6.05;1.17;;;10.70;99.90;;;;;;5090155;28;20426;-60
2022/11/16 11:46:08;;;;;;;8.43;1.13;;;10.80;99.90;;;;;;5106837;28;20477;-59
2022/11/16 11:48:41;;;;;;;4.18;0.80;;;10.90;99.90;;;;;;4986335;28;20508;-60
2022/11/16 11:51:37;;;;;;;3.63;0.47;;;11.00;99.90;;;;;;5076462;28;20574;-60
2022/11/16 11:54:04;;;;;;;5.88;0.70;;;11.00;99.90;;;;;;5080972;28;20059;-60
2022/11/16 11:56:32;;;;;;;3.90;0.85;;;11.10;99.90;;;;;;5103163;28;20052;-60
2022/11/16 11:59:00;;;;;;;7.00;1.70;;;11.10;99.90;;;;;;5106592;28;20052;-61
2022/11/16 12:02:09;;;;;;;3.28;1.17;;;11.10;99.90;;;;;;5083252;28;20060;-59
2022/11/16 12:04:58;;;;;;;8.57;0.70;;;11.10;99.90;;;;;;5041385;28;20057;-60
2022/11/16 12:07:36;;;;;;;5.25;0.88;;;11.00;99.90;;;;;;5024421;28;20049;-61
2022/11/16 12:10:12;;;;;;;3.25;0.88;;;11.10;99.90;;;;;;5074047;28;20064;-60
2022/11/16 12:12:56;;;;;;;5.47;1.42;;;11.10;99.90;;;;;;5077843;28;20227;-60
2022/11/16 12:15:32;;;;;;;5.57;1.27;;;11.20;99.90;;;;;;5067620;28;20053;-61
2022/11/16 12:18:18;;;;;;;4.65;1.35;;;11.20;99.90;;;;;;5078780;28;20048;-61
2022/11/16 12:20:59;;;;;;;1.73;0.70;;;11.20;99.90;;;;;;5067649;28;20052;-59
2022/11/16 12:23:42;;;;;;;7.45;1.33;;;11.20;99.90;;;;;;5079830;28;20083;-59
2022/11/16 12:26:15;;;;;;;6.55;1.52;;;11.20;99.90;;;;;;5065723;28;20054;-59
2022/11/16 12:29:15;;;;;;;5.70;1.08;;;11.20;99.90;;;;;;5080106;28;20048;-60
2022/11/16 12:31:51;;;;;;;7.20;1.40;;;11.20;99.90;;;;;;5067426;28;20040;-58
2022/11/16 12:34:51;;;;;;;9.25;1.45;;;11.20;99.90;;;;;;5078607;28;20048;-59
2022/11/16 12:37:24;;;;;;;9.48;1.25;;;11.20;99.90;;;;;;5069538;28;20059;-60
2022/11/16 12:39:54;;;;;;;5.72;1.40;;;11.20;99.90;;;;;;5074988;28;20486;-60
2022/11/16 12:42:42;;;;;;;7.15;1.65;;;11.30;99.90;;;;;;5085011;28;20044;-60
2022/11/16 12:45:15;;;;;;;5.28;1.50;;;11.30;99.90;;;;;;5076709;28;20510;-60
2022/11/16 12:47:47;;;;;;;5.05;1.08;;;11.30;99.90;;;;;;5082941;28;20117;-60
2022/11/16 12:50:19;;;;;;;6.47;1.77;;;11.40;99.90;;;;;;5077081;28;20044;-60
2022/11/16 12:52:58;;;;;;;8.07;1.63;;;11.50;99.90;;;;;;5069408;28;20041;-60
2022/11/16 12:55:31;;;;;;;3.08;1.20;;;11.60;99.90;;;;;;5075911;28;20054;-59
2022/11/16 12:58:32;;;;;;;5.78;1.80;;;11.60;99.90;;;;;;5062357;28;20036;-60
2022/11/16 13:01:05;;;;;;;5.40;1.65;;;11.70;99.90;;;;;;5081353;28;20083;-60
2022/11/16 13:03:41;;;;;;;11.45;2.50;;;11.70;99.90;;;;;;5102859;28;20071;-60
2022/11/16 13:06:11;;;;;;;4.95;1.20;;;11.70;99.90;;;;;;5077194;28;20040;-59
2022/11/16 13:08:56;;;;;;;13.85;2.05;;;11.70;99.90;;;;;;5073651;28;20043;-60
2022/11/16 13:11:29;;;;;;;11.32;1.67;;;11.70;99.90;;;;;;5081905;28;20059;-61
2022/11/16 13:13:59;;;;;;;11.30;2.42;;;11.60;99.90;;;;;;5085595;28;20047;-61
2022/11/16 13:16:27;;;;;;;7.32;1.38;;;11.70;99.90;;;;;;5080770;28;20055;-60
2022/11/16 13:18:54;;;;;;;10.55;3.00;;;11.60;99.90;;;;;;5086966;28;20050;-61
2022/11/16 13:21:31;;;;;;;9.45;2.83;;;11.70;99.90;;;;;;5078029;28;20525;-58
2022/11/16 13:24:00;;;;;;;10.00;2.05;;;11.70;99.90;;;;;;5086902;28;20043;-59
2022/11/16 13:27:05;;;;;;;5.13;1.42;;;11.70;99.90;;;;;;5096191;28;20514;-59
2022/11/16 13:29:33;;;;;;;11.43;1.73;;;11.70;99.90;;;;;;5102995;28;20686;-60
2022/11/16 13:32:13;;;;;;;11.25;2.00;;;11.70;99.90;;;;;;5081493;28;20107;-60
2022/11/16 13:34:40;;;;;;;10.63;1.73;;;11.70;99.90;;;;;;5086819;28;20054;-60
2022/11/16 13:37:37;;;;;;;4.95;1.73;;;11.70;99.90;;;;;;5080337;28;20046;-60
2022/11/16 13:40:04;;;;;;;9.68;2.47;;;11.70;99.90;;;;;;5086224;28;20044;-60
2022/11/16 13:42:33;;;;;;;6.50;1.25;;;11.70;99.90;;;;;;5103841;28;20142;-59
2022/11/16 13:45:15;;;;;;;5.63;2.63;;;11.80;99.90;;;;;;5091601;28;20043;-60
2022/11/16 13:47:52;;;;;;;7.70;2.33;;;11.80;99.90;;;;;;5076658;28;20058;-59
2022/11/16 13:50:21;;;;;;;3.92;1.40;;;11.80;99.90;;;;;;5075347;28;20065;-59
2022/11/16 13:52:49;;;;;;;6.38;1.50;;;11.70;99.90;;;;;;5077514;28;20139;-59
2022/11/16 13:55:43;;;;;;;10.18;1.80;;;11.70;99.90;;;;;;5078314;28;20047;-60
2022/11/16 13:58:11;;;;;;;5.78;1.48;;;11.70;99.90;;;;;;5086774;28;20139;-59